Merced Regional Macready Field Merced US
ICAO: KMCE
IATA: MCE
Category: Medium
Scheduled Services: No

Elevation: 155 ft
TransAlt. 18000 ft.

Airport Communications:
NORCAL APP/DEP:120.95
ASOS:132.175
CTAF/UNICOM:122.7

KMCE Zoom In..

If you have problems with the map follow the link
https://www.worldairports.se/pages/airport.php?
ICAO=KMCE

Runways:

(A) RW 12 length 5914 ft width 150 ft
---- / hdg 123

(B) RW 30 length 5914 ft width 150 ft
ILS 109.30 / hdg 303

Location; KMCE
Day. 12 / Time. 11.53 Zulu
* Altimeter: 30.26
* Temperature: 10° c. 50°f.
* Wind from: 200° Speed 03 kn.
Dewpoint: 09° c.
Visibility: 2 m.
Clouds: Broken 4400 ft.
Clouds: Overcast 5500 ft.
Conditions: Mist.

KMCE 121153Z AUTO 20003KT 2 1/2SM BR BKN044 OVC055 10/09 A3026 RMK AO2 SLP248 T01000089 10111 20100 51012


Wind From 200°
Speed 03 kn.

 
 
jpsmedia worldairports.se 2019   terms of use